Back to Top

Language: 

My Weather Underground Personal Weather Station Historical Data with Graphs...

Delerius Weather Station Historical Data
Daily Summary for December 14, 2017 Units:  Metric    English   Both
« Previous Day
Next Day »
Daily Weekly Monthly Yearly Custom
  High: Low: Average:
Temperature: 4.9 °C 1 °C 3.3 °C
Dew Point: 2.7 °C 0.2 °C 1.7 °C
Humidity: 95 % 81 % 89 %
Wind Speed: 25.7 km/h 0 km/h 12.4 km/h
Wind Gust: 46.7 km/h - -
Wind:- - WSW
Pressure: 986.7 hPa 982.6 hPa -
Precipitation: 7.11 mm    
Historical Graphs
 
 
Tabular Data for December 14, 2017
Time Temperature Dew Point Pressure Wind Wind Speed Wind Gust Humidity Rainfall Rate (Hourly) solar Conditions
00:02 2.3 °C 0.8 °C 985.7 hPa West 17.7 km/h 30.6 km/h 90 % 0 mm 0 W/m2
00:12 2.4 °C 0.9 °C 985.7 hPa West 19.3 km/h 33.8 km/h 90 % 0 mm 0 W/m2
00:18 2.4 °C 0.9 °C 985.7 hPa West 19.3 km/h 32.2 km/h 90 % 0 mm 0 W/m2
00:23 2.5 °C 1 °C 985.7 hPa West 20.9 km/h 30.6 km/h 90 % 0 mm 0 W/m2
00:33 2.6 °C 0.9 °C 986 hPa West 22.5 km/h 37 km/h 89 % 0 mm 0 W/m2
00:38 2.5 °C 1 °C 986 hPa West 25.7 km/h 46.7 km/h 90 % 0.25 mm 0 W/m2
00:43 2.3 °C 0.8 °C 986 hPa West 25.7 km/h 40.2 km/h 90 % 0.51 mm 0 W/m2
00:48 2.1 °C 0.8 °C 986 hPa West 17.7 km/h 24.1 km/h 91 % 0.51 mm 0 W/m2
00:53 2.1 °C 0.9 °C 986 hPa West 12.9 km/h 22.5 km/h 92 % 0.51 mm 0 W/m2
00:58 2.1 °C 0.9 °C 986.3 hPa West 14.5 km/h 20.9 km/h 92 % 0.51 mm 0 W/m2
01:03 2.1 °C 0.9 °C 986.3 hPa West 14.5 km/h 22.5 km/h 92 % 0.51 mm 0 W/m2
01:08 2.2 °C 1.1 °C 986 hPa West 14.5 km/h 19.3 km/h 92 % 0.51 mm 0 W/m2
01:18 2.2 °C 1.1 °C 986 hPa West 16.1 km/h 24.1 km/h 92 % 0.51 mm 0 W/m2
01:34 2.1 °C 1.1 °C 986.3 hPa West 12.9 km/h 17.7 km/h 93 % 0.51 mm 0 W/m2
01:39 2.2 °C 1.2 °C 986.3 hPa West 11.3 km/h 20.9 km/h 93 % 0.25 mm 0 W/m2
01:54 2.3 °C 1.3 °C 986.3 hPa West 9.7 km/h 16.1 km/h 93 % 0.25 mm 0 W/m2
02:09 2.1 °C 1.1 °C 986.3 hPa West 9.7 km/h 20.9 km/h 93 % 0.25 mm 0 W/m2
02:14 2.2 °C 1.2 °C 986.3 hPa West 8 km/h 16.1 km/h 93 % 0.25 mm 0 W/m2
02:19 2.3 °C 1.3 °C 986.3 hPa West 12.9 km/h 19.3 km/h 93 % 0.25 mm 0 W/m2
02:24 2.4 °C 1.4 °C 986.3 hPa West 12.9 km/h 24.1 km/h 93 % 0.25 mm 0 W/m2
02:29 2.5 °C 1.5 °C 986.3 hPa West 11.3 km/h 19.3 km/h 93 % 0.25 mm 0 W/m2
02:34 2.6 °C 1.6 °C 986.3 hPa WNW 12.9 km/h 20.9 km/h 93 % 0.25 mm 0 W/m2
02:39 2.6 °C 1.6 °C 986.3 hPa West 9.7 km/h 17.7 km/h 93 % 0.25 mm 0 W/m2
02:44 2.6 °C 1.6 °C 986.3 hPa WSW 4.8 km/h 11.3 km/h 93 % 0.25 mm 0 W/m2
02:49 2.7 °C 1.7 °C 986.3 hPa WNW 16.1 km/h 24.1 km/h 93 % 0.25 mm 0 W/m2
02:54 2.7 °C 1.7 °C 986.3 hPa WNW 9.7 km/h 19.3 km/h 93 % 0.25 mm 0 W/m2
02:59 2.8 °C 1.8 °C 986.3 hPa West 8 km/h 19.3 km/h 93 % 0.25 mm 0 W/m2
03:04 2.8 °C 1.8 °C 986 hPa Calm   3.2 km/h 93 % 0.25 mm 0 W/m2
03:09 2.7 °C 1.7 °C 986.3 hPa Calm   3.2 km/h 93 % 0.25 mm 0 W/m2
03:15 2.6 °C 1.4 °C 986.3 hPa Calm     92 % 0.25 mm 0 W/m2
03:20 2.6 °C 1.6 °C 986.3 hPa West 9.7 km/h 20.9 km/h 93 % 0.25 mm 0 W/m2
03:21 2.6 °C 1.6 °C 986.3 hPa West 9.7 km/h 20.9 km/h 93 % 0.25 mm 0 W/m2
03:24 2.6 °C 1.6 °C 986.3 hPa West 12.9 km/h 22.5 km/h 93 % 0.25 mm 0 W/m2
03:26 2.7 °C 1.7 °C 986.3 hPa WNW 12.9 km/h 17.7 km/h 93 % 0.25 mm 0 W/m2
03:31 2.8 °C 1.8 °C 986.3 hPa WNW 14.5 km/h 24.1 km/h 93 % 0.25 mm 0 W/m2
03:41 2.9 °C 1.7 °C 986.7 hPa West 4.8 km/h 11.3 km/h 92 % 0.25 mm 0 W/m2
03:46 2.9 °C 1.7 °C 986.7 hPa WNW 17.7 km/h 25.7 km/h 92 % 0 mm 0 W/m2
03:56 3.1 °C 1.9 °C 986.3 hPa West 19.3 km/h 37 km/h 92 % 0 mm 0 W/m2
04:01 3 °C 1.7 °C 986.7 hPa WNW 19.3 km/h 25.7 km/h 91 % 0 mm 0 W/m2
04:06 2.9 °C 1.7 °C 986.3 hPa WNW 16.1 km/h 25.7 km/h 92 % 0 mm 0 W/m2
04:11 2.8 °C 1.6 °C 986.3 hPa WNW 12.9 km/h 20.9 km/h 92 % 0 mm 0 W/m2
04:16 2.7 °C 1.6 °C 986.3 hPa WNW 11.3 km/h 17.7 km/h 92 % 0 mm 0 W/m2
04:24 2.5 °C 1.3 °C 986.3 hPa WNW 8 km/h 11.3 km/h 92 % 0 mm 0 W/m2
04:26 2.4 °C 1.2 °C 986.3 hPa WNW 6.4 km/h 12.9 km/h 92 % 0 mm 0 W/m2
04:30 2.4 °C 1.2 °C 986.3 hPa WNW 9.7 km/h 16.1 km/h 92 % 0 mm 0 W/m2
04:31 2.4 °C 1.2 °C 986.3 hPa WNW 9.7 km/h 16.1 km/h 92 % 0 mm 0 W/m2
04:46 2.1 °C 0.9 °C 986.3 hPa Calm   1.6 km/h 92 % 0 mm 0 W/m2
04:51 2 °C 0.8 °C 986.3 hPa Calm     92 % 0 mm 0 W/m2
04:56 1.8 °C 0.6 °C 986.3 hPa WNW 1.6 km/h 6.4 km/h 92 % 0 mm 0 W/m2
04:59 1.8 °C 0.6 °C 986.3 hPa Calm   3.2 km/h 92 % 0 mm 0 W/m2
05:01 1.8 °C 0.6 °C 986.3 hPa Calm   4.8 km/h 92 % 0 mm 0 W/m2
05:06 1.7 °C 0.7 °C 986.7 hPa WSW 4.8 km/h 14.5 km/h 93 % 0 mm 0 W/m2
05:09 1.8 °C 0.8 °C 986.3 hPa WSW 3.2 km/h 11.3 km/h 93 % 0 mm 0 W/m2
05:16 2 °C 1 °C 986.7 hPa SW 8 km/h 12.9 km/h 93 % 0 mm 0 W/m2
05:21 2.3 °C 1.3 °C 986.7 hPa SW 8 km/h 14.5 km/h 93 % 0 mm 0 W/m2
05:22 2.3 °C 1.4 °C 986.7 hPa WSW 8 km/h 14.5 km/h 94 % 0 mm 0 W/m2
05:26 2.5 °C 1.6 °C 986.7 hPa WSW 14.5 km/h 19.3 km/h 94 % 0.25 mm 0 W/m2
05:31 2.7 °C 1.7 °C 986.7 hPa WSW 6.4 km/h 12.9 km/h 93 % 0.25 mm 0 W/m2
05:36 2.7 °C 1.7 °C 986.7 hPa SW 9.7 km/h 14.5 km/h 93 % 0.25 mm 0 W/m2
05:41 2.7 °C 1.7 °C 986.7 hPa SW 9.7 km/h 16.1 km/h 93 % 0.25 mm 0 W/m2
05:46 2.7 °C 1.7 °C 986.7 hPa WSW 11.3 km/h 16.1 km/h 93 % 0.25 mm 0 W/m2
05:51 2.6 °C 1.4 °C 986.7 hPa WSW 12.9 km/h 17.7 km/h 92 % 0.25 mm 0 W/m2
05:54 2.5 °C 1.3 °C 986.7 hPa WSW 11.3 km/h 19.3 km/h 92 % 0.25 mm 0 W/m2
05:57 2.4 °C 1.4 °C 986.7 hPa SW 6.4 km/h 11.3 km/h 93 % 0.25 mm 0 W/m2
06:07 2.3 °C 1.3 °C 986.7 hPa WSW 9.7 km/h 16.1 km/h 93 % 0.25 mm 0 W/m2
06:17 2.3 °C 1.3 °C 986.7 hPa WSW 11.3 km/h 19.3 km/h 93 % 0.51 mm 0 W/m2
06:20 2.3 °C 1.3 °C 986.3 hPa WSW 8 km/h 12.9 km/h 93 % 0.51 mm 0 W/m2
06:22 2.3 °C 1.3 °C 986.3 hPa WSW 3.2 km/h 9.7 km/h 93 % 0.51 mm 0 W/m2
06:27 2.3 °C 1.3 °C 986.3 hPa West 6.4 km/h 12.9 km/h 93 % 0.25 mm 0 W/m2
06:32 2.3 °C 1.3 °C 986 hPa WSW 3.2 km/h 9.7 km/h 93 % 0.25 mm 0 W/m2
06:42 2.3 °C 1.3 °C 986 hPa WSW 6.4 km/h 11.3 km/h 93 % 0.25 mm 0 W/m2
06:47 2.4 °C 1.4 °C 986 hPa WSW 8 km/h 14.5 km/h 93 % 0.25 mm 0 W/m2
06:52 2.6 °C 1.7 °C 986.3 hPa WSW 20.9 km/h 33.8 km/h 94 % 0.25 mm 0 W/m2
06:57 2.8 °C 1.9 °C 986 hPa West 12.9 km/h 20.9 km/h 94 % 0.25 mm 0 W/m2
07:08 3 °C 2 °C 986.3 hPa WSW 14.5 km/h 24.1 km/h 93 % 0.25 mm 0 W/m2
07:13 3 °C 2 °C 986 hPa West 14.5 km/h 29 km/h 93 % 0.25 mm 0 W/m2
07:15 3.1 °C 2.1 °C 986 hPa West 12.9 km/h 17.7 km/h 93 % 0.25 mm 0 W/m2
07:20 3.1 °C 2.1 °C 986 hPa West 12.9 km/h 19.3 km/h 93 % 0.25 mm 0 W/m2
07:25 3 °C 2 °C 986 hPa West 8 km/h 14.5 km/h 93 % 0.25 mm 0 W/m2
07:35 2.9 °C 1.9 °C 986 hPa WSW 9.7 km/h 14.5 km/h 93 % 0.25 mm 0 W/m2
07:39 2.9 °C 1.7 °C 986 hPa West 9.7 km/h 14.5 km/h 92 % 0.25 mm 0 W/m2
07:40 2.9 °C 1.7 °C 986 hPa West 9.7 km/h 12.9 km/h 92 % 0.25 mm 0 W/m2
07:45 2.8 °C 1.6 °C 986 hPa WSW 6.4 km/h 12.9 km/h 92 % 0.25 mm 0 W/m2
07:50 2.8 °C 1.6 °C 986 hPa WSW 4.8 km/h 8 km/h 92 % 0.25 mm 0 W/m2
07:54 2.8 °C 1.8 °C 986.3 hPa WSW 3.2 km/h 8 km/h 93 % 0.25 mm 0 W/m2
07:55 2.8 °C 1.8 °C 986.3 hPa WSW 3.2 km/h 6.4 km/h 93 % 0.25 mm 0 W/m2
08:00 2.7 °C 1.7 °C 986 hPa WSW 1.6 km/h 3.2 km/h 93 % 0.25 mm 0 W/m2
08:02 2.7 °C 1.7 °C 986 hPa WSW 1.6 km/h 6.4 km/h 93 % 0.25 mm 0 W/m2
08:07 2.8 °C 1.8 °C 986.3 hPa West 16.1 km/h 24.1 km/h 93 % 0.25 mm 0 W/m2
08:08 2.8 °C 1.8 °C 986 hPa WSW 12.9 km/h 20.9 km/h 93 % 0.25 mm 0 W/m2
08:13 2.9 °C 1.9 °C 986 hPa SW 8 km/h 12.9 km/h 93 % 0 mm 0 W/m2
08:18 3 °C 2 °C 986 hPa WSW 12.9 km/h 17.7 km/h 93 % 0 mm 0 W/m2
08:23 3.1 °C 2.1 °C 986 hPa WSW 12.9 km/h 25.7 km/h 93 % 0 mm 0 W/m2
08:28 3.2 °C 2.2 °C 986 hPa WSW 17.7 km/h 30.6 km/h 93 % 0.25 mm 0 W/m2
08:29 3.2 °C 2.2 °C 986.3 hPa WSW 17.7 km/h 30.6 km/h 93 % 0.25 mm 0 W/m2
08:33 3.3 °C 2.1 °C 986.3 hPa WSW 19.3 km/h 33.8 km/h 92 % 0.25 mm 0 W/m2
08:38 3.3 °C 2.1 °C 986.3 hPa West 16.1 km/h 24.1 km/h 92 % 0.25 mm 0 W/m2
08:43 3.2 °C 2 °C 986.3 hPa West 8 km/h 16.1 km/h 92 % 0.25 mm 7 W/m2
08:48 3.2 °C 2 °C 986.3 hPa West 8 km/h 9.7 km/h 92 % 0.25 mm 9 W/m2
08:50 3.2 °C 2 °C 986.3 hPa West 6.4 km/h 11.3 km/h 92 % 0.25 mm 11 W/m2
08:53 3.1 °C 1.9 °C 986.3 hPa WSW 4.8 km/h 12.9 km/h 92 % 0.25 mm 11 W/m2
08:58 3.1 °C 1.9 °C 986.3 hPa West 8 km/h 11.3 km/h 92 % 0.25 mm 37 W/m2
09:03 3.2 °C 2.2 °C 986.3 hPa WSW 9.7 km/h 17.7 km/h 93 % 0.25 mm 26 W/m2
09:08 3.3 °C 2.3 °C 986.3 hPa WSW 9.7 km/h 16.1 km/h 93 % 0.25 mm 51 W/m2
09:13 3.3 °C 2.3 °C 986.3 hPa WSW 16.1 km/h 24.1 km/h 93 % 0.25 mm 19 W/m2
09:17 3.4 °C 2.4 °C 986.3 hPa West 16.1 km/h 24.1 km/h 93 % 0.25 mm 39 W/m2
09:18 3.4 °C 2.4 °C 986.3 hPa WSW 14.5 km/h 19.3 km/h 93 % 0.25 mm 51 W/m2
09:23 3.4 °C 2.2 °C 986.3 hPa West 16.1 km/h 29 km/h 92 % 0.25 mm 63 W/m2
09:28 3.4 °C 2.2 °C 986.3 hPa West 20.9 km/h 33.8 km/h 92 % 0 mm 44 W/m2
09:30 3.4 °C 2.2 °C 986.3 hPa WSW 24.1 km/h 40.2 km/h 92 % 0 mm 49 W/m2
09:33 3.4 °C 2.2 °C 986.3 hPa WSW 17.7 km/h 22.5 km/h 92 % 0 mm 58 W/m2
09:38 3.4 °C 2.2 °C 986.3 hPa WSW 16.1 km/h 24.1 km/h 92 % 0 mm 79 W/m2
09:49 3.5 °C 2.3 °C 986.3 hPa WSW 19.3 km/h 32.2 km/h 92 % 0 mm 141 W/m2
09:54 3.7 °C 2.5 °C 986 hPa WSW 19.3 km/h 32.2 km/h 92 % 0 mm 81 W/m2
09:58 3.7 °C 2.4 °C 986 hPa WSW 19.3 km/h 30.6 km/h 91 % 0 mm 107 W/m2
09:59 3.7 °C 2.4 °C 986 hPa West 19.3 km/h 30.6 km/h 91 % 0 mm 107 W/m2
10:04 3.9 °C 2.6 °C 986 hPa WSW 22.5 km/h 32.2 km/h 91 % 0 mm 67 W/m2
10:08 3.9 °C 2.4 °C 986 hPa WSW 22.5 km/h 32.2 km/h 90 % 0 mm 47 W/m2
10:09 3.9 °C 2.4 °C 986 hPa WSW 22.5 km/h 38.6 km/h 90 % 0 mm 49 W/m2
10:14 3.9 °C 2.3 °C 986 hPa WSW 20.9 km/h 32.2 km/h 89 % 0 mm 58 W/m2
10:19 3.9 °C 2.3 °C 986 hPa WSW 22.5 km/h 37 km/h 89 % 0 mm 42 W/m2
10:24 3.9 °C 2.3 °C 986 hPa WSW 25.7 km/h 38.6 km/h 89 % 0 mm 37 W/m2
10:29 3.9 °C 2.1 °C 986 hPa WSW 19.3 km/h 30.6 km/h 88 % 0 mm 67 W/m2
10:34 4 °C 2.2 °C 986 hPa WSW 16.1 km/h 30.6 km/h 88 % 0 mm 54 W/m2
10:35 4 °C 2.2 °C 986 hPa WSW 17.7 km/h 30.6 km/h 88 % 0 mm 56 W/m2
10:37 4 °C 2.2 °C 986 hPa WSW 16.1 km/h 29 km/h 88 % 0 mm 88 W/m2
10:42 4.1 °C 2.3 °C 986 hPa WSW 16.1 km/h 25.7 km/h 88 % 0 mm 67 W/m2
10:47 4.1 °C 2.3 °C 986 hPa WSW 14.5 km/h 24.1 km/h 88 % 0 mm 139 W/m2
10:50 4.1 °C 2.3 °C 986 hPa WSW 14.5 km/h 22.5 km/h 88 % 0 mm 167 W/m2
10:55 4.3 °C 2.3 °C 986 hPa WSW 17.7 km/h 25.7 km/h 87 % 0 mm 125 W/m2
11:00 4.4 °C 2.4 °C 986 hPa West 16.1 km/h 29 km/h 87 % 0 mm 123 W/m2
11:04 4.5 °C 2.5 °C 985.7 hPa West 19.3 km/h 32.2 km/h 87 % 0 mm 151 W/m2
11:05 4.5 °C 2.5 °C 986 hPa WSW 16.1 km/h 25.7 km/h 87 % 0 mm 262 W/m2
11:10 4.7 °C 2.7 °C 985.7 hPa WSW 11.3 km/h 17.7 km/h 87 % 0 mm 109 W/m2
11:15 4.7 °C 2.6 °C 985.7 hPa WSW 17.7 km/h 35.4 km/h 86 % 0 mm 139 W/m2
11:17 4.7 °C 2.6 °C 985.7 hPa WSW 19.3 km/h 35.4 km/h 86 % 0 mm 153 W/m2
11:20 4.7 °C 2.4 °C 985.7 hPa WSW 19.3 km/h 33.8 km/h 85 % 0 mm 63 W/m2
11:25 4.6 °C 2.3 °C 985.7 hPa West 14.5 km/h 30.6 km/h 85 % 0 mm 58 W/m2
11:30 4.5 °C 2.2 °C 985.7 hPa West 11.3 km/h 16.1 km/h 85 % 0 mm 62 W/m2
11:35 4.4 °C 2.1 °C 985.3 hPa WSW 12.9 km/h 19.3 km/h 85 % 0 mm 70 W/m2
11:39 4.4 °C 2.1 °C 985.3 hPa WSW 9.7 km/h 14.5 km/h 85 % 0 mm 93 W/m2
11:40 4.4 °C 2.1 °C 985.3 hPa WSW 9.7 km/h 17.7 km/h 85 % 0 mm 88 W/m2
11:42 4.4 °C 2.1 °C 985.7 hPa WSW 16.1 km/h 25.7 km/h 85 % 0 mm 79 W/m2
11:47 4.4 °C 2.1 °C 985.3 hPa WSW 12.9 km/h 24.1 km/h 85 % 0 mm 54 W/m2
11:52 4.6 °C 2.1 °C 985.3 hPa WSW 17.7 km/h 22.5 km/h 84 % 0.25 mm 44 W/m2
11:53 4.6 °C 2.1 °C 985.3 hPa WSW 17.7 km/h 22.5 km/h 84 % 0.25 mm 44 W/m2
11:58 4.6 °C 2.1 °C 985.3 hPa SW 11.3 km/h 20.9 km/h 84 % 0.25 mm 32 W/m2
12:03 4.6 °C 2.1 °C 985.3 hPa SW 12.9 km/h 32.2 km/h 84 % 0.25 mm 39 W/m2
12:08 4.6 °C 1.9 °C 985.3 hPa WSW 16.1 km/h 32.2 km/h 83 % 0.25 mm 49 W/m2
12:13 4.6 °C 1.9 °C 985 hPa SW 12.9 km/h 17.7 km/h 83 % 0.25 mm 58 W/m2
12:18 4.6 °C 1.9 °C 985 hPa SW 12.9 km/h 25.7 km/h 83 % 0.25 mm 72 W/m2
12:23 4.5 °C 1.9 °C 985 hPa SW 12.9 km/h 17.7 km/h 83 % 0.25 mm 81 W/m2
12:25 4.6 °C 2.1 °C 985 hPa SW 14.5 km/h 24.1 km/h 84 % 0.25 mm 83 W/m2
12:28 4.5 °C 1.9 °C 985 hPa SW 14.5 km/h 24.1 km/h 83 % 0.25 mm 88 W/m2
12:33 4.6 °C 1.9 °C 984.6 hPa SW 12.9 km/h 17.7 km/h 83 % 0.25 mm 97 W/m2
12:38 4.6 °C 1.9 °C 984.6 hPa SW 16.1 km/h 29 km/h 83 % 0.25 mm 104 W/m2
12:39 4.6 °C 1.9 °C 984.6 hPa SW 16.1 km/h 29 km/h 83 % 0.25 mm 107 W/m2
12:44 4.7 °C 2.1 °C 984.6 hPa WSW 22.5 km/h 35.4 km/h 83 % 0.25 mm 79 W/m2
12:49 4.7 °C 1.9 °C 984.6 hPa WSW 19.3 km/h 25.7 km/h 82 % 0.25 mm 58 W/m2
12:50 4.7 °C 1.9 °C 984.6 hPa SW 19.3 km/h 32.2 km/h 82 % 0 mm 54 W/m2
12:55 4.7 °C 2.1 °C 984.6 hPa WSW 16.1 km/h 20.9 km/h 83 % 0 mm 51 W/m2
13:00 4.6 °C 1.9 °C 984.6 hPa WSW 11.3 km/h 16.1 km/h 83 % 0 mm 54 W/m2
13:05 4.6 °C 1.9 °C 984.6 hPa WSW 14.5 km/h 20.9 km/h 83 % 0 mm 39 W/m2
13:10 4.5 °C 1.9 °C 984.6 hPa WSW 12.9 km/h 17.7 km/h 83 % 0 mm 46 W/m2
13:15 4.5 °C 1.9 °C 984.6 hPa SW 12.9 km/h 19.3 km/h 83 % 0 mm 62 W/m2
13:20 4.5 °C 1.9 °C 984.6 hPa SW 16.1 km/h 24.1 km/h 83 % 0 mm 65 W/m2
13:25 4.6 °C 1.9 °C 984.3 hPa SW 14.5 km/h 22.5 km/h 83 % 0 mm 67 W/m2
13:30 4.7 °C 1.9 °C 984.3 hPa WSW 17.7 km/h 25.7 km/h 82 % 0 mm 70 W/m2
13:35 4.8 °C 2 °C 984.3 hPa SW 12.9 km/h 20.9 km/h 82 % 0 mm 49 W/m2
13:40 4.8 °C 2 °C 984.3 hPa SW 14.5 km/h 19.3 km/h 82 % 0 mm 58 W/m2
13:45 4.9 °C 2.1 °C 984.3 hPa SW 16.1 km/h 22.5 km/h 82 % 0 mm 37 W/m2
13:50 4.9 °C 1.9 °C 984.3 hPa SW 16.1 km/h 25.7 km/h 81 % 0 mm 37 W/m2
13:55 4.9 °C 1.9 °C 984 hPa WSW 12.9 km/h 20.9 km/h 81 % 0 mm 42 W/m2
14:00 4.9 °C 1.9 °C 984.3 hPa SW 12.9 km/h 22.5 km/h 81 % 0 mm 42 W/m2
14:05 4.9 °C 1.9 °C 984 hPa SSW 17.7 km/h 29 km/h 81 % 0 mm 39 W/m2
14:08 4.9 °C 1.9 °C 984 hPa SSW 12.9 km/h 19.3 km/h 81 % 0 mm 32 W/m2
14:10 4.9 °C 1.9 °C 984 hPa SW 16.1 km/h 22.5 km/h 81 % 0 mm 30 W/m2
14:15 4.9 °C 1.9 °C 984 hPa SW 12.9 km/h 19.3 km/h 81 % 0 mm 28 W/m2
14:20 4.8 °C 1.8 °C 984 hPa SW 11.3 km/h 17.7 km/h 81 % 0 mm 35 W/m2
14:25 4.8 °C 2 °C 984 hPa SW 11.3 km/h 16.1 km/h 82 % 0 mm 32 W/m2
14:30 4.8 °C 2 °C 984 hPa SW 9.7 km/h 14.5 km/h 82 % 0 mm 30 W/m2
14:31 4.8 °C 2 °C 984 hPa SW 9.7 km/h 14.5 km/h 82 % 0 mm 30 W/m2
14:35 4.8 °C 2 °C 984 hPa SW 8 km/h 14.5 km/h 82 % 0 mm 30 W/m2
14:40 4.8 °C 2 °C 984 hPa SW 9.7 km/h 20.9 km/h 82 % 0 mm 26 W/m2
14:45 4.8 °C 2 °C 983.6 hPa SW 6.4 km/h 9.7 km/h 82 % 0 mm 23 W/m2
14:50 4.8 °C 2 °C 983.6 hPa SW 9.7 km/h 12.9 km/h 82 % 0 mm 19 W/m2
14:55 4.8 °C 2 °C 983.6 hPa SSW 9.7 km/h 12.9 km/h 82 % 0 mm 25 W/m2
15:00 4.8 °C 2 °C 983.3 hPa SSW 14.5 km/h 22.5 km/h 82 % 0 mm 28 W/m2
15:04 4.8 °C 2 °C 983.3 hPa SW 12.9 km/h 17.7 km/h 82 % 0 mm 25 W/m2
15:05 4.8 °C 2 °C 983.3 hPa SW 11.3 km/h 19.3 km/h 82 % 0 mm 21 W/m2
15:10 4.7 °C 1.9 °C 983.3 hPa SW 12.9 km/h 17.7 km/h 82 % 0 mm 23 W/m2
15:15 4.7 °C 2.1 °C 983.3 hPa SW 14.5 km/h 22.5 km/h 83 % 0 mm 23 W/m2
15:19 4.7 °C 2.1 °C 983.3 hPa SW 9.7 km/h 14.5 km/h 83 % 0 mm 23 W/m2
15:21 4.7 °C 2.1 °C 983.3 hPa SW 11.3 km/h 16.1 km/h 83 % 0 mm 23 W/m2
15:26 4.6 °C 1.9 °C 983.3 hPa SW 9.7 km/h 14.5 km/h 83 % 0 mm 16 W/m2
15:29 4.6 °C 1.9 °C 983.3 hPa SW 11.3 km/h 17.7 km/h 83 % 0 mm 9 W/m2
15:34 4.6 °C 1.9 °C 983.3 hPa SW 9.7 km/h 12.9 km/h 83 % 0 mm 5 W/m2
15:39 4.6 °C 1.9 °C 983.3 hPa SW 9.7 km/h 12.9 km/h 83 % 0 mm 5 W/m2
15:44 4.6 °C 1.9 °C 983.3 hPa SW 11.3 km/h 19.3 km/h 83 % 0 mm 0 W/m2
15:49 4.6 °C 1.9 °C 983.3 hPa WSW 11.3 km/h 16.1 km/h 83 % 0 mm 0 W/m2
15:50 4.6 °C 1.9 °C 983.3 hPa SW 11.3 km/h 22.5 km/h 83 % 0 mm 0 W/m2
15:55 4.7 °C 2.1 °C 983.3 hPa SW 12.9 km/h 17.7 km/h 83 % 0 mm 0 W/m2
16:00 4.8 °C 2.2 °C 983.6 hPa WSW 16.1 km/h 22.5 km/h 83 % 0 mm 0 W/m2
16:05 4.8 °C 2.2 °C 983.6 hPa WSW 14.5 km/h 22.5 km/h 83 % 0 mm 0 W/m2
16:10 4.8 °C 2.2 °C 983.6 hPa WSW 14.5 km/h 20.9 km/h 83 % 0 mm 0 W/m2
16:12 4.8 °C 2.2 °C 983.6 hPa SW 14.5 km/h 22.5 km/h 83 % 0 mm 0 W/m2
16:17 4.9 °C 2.3 °C 983.6 hPa SW 12.9 km/h 17.7 km/h 83 % 0 mm 0 W/m2
16:22 4.9 °C 2.1 °C 983.3 hPa SW 14.5 km/h 22.5 km/h 82 % 0 mm 0 W/m2
16:27 4.9 °C 2.1 °C 983.3 hPa SW 14.5 km/h 22.5 km/h 82 % 0 mm 0 W/m2
16:32 4.9 °C 2.3 °C 983.3 hPa SW 14.5 km/h 22.5 km/h 83 % 0 mm 0 W/m2
16:34 4.9 °C 2.1 °C 983 hPa SW 16.1 km/h 22.5 km/h 82 % 0 mm 0 W/m2
16:37 4.9 °C 2.3 °C 983 hPa SW 16.1 km/h 22.5 km/h 83 % 0 mm 0 W/m2
16:42 4.9 °C 2.1 °C 983 hPa SSW 16.1 km/h 22.5 km/h 82 % 0 mm 0 W/m2
16:47 4.9 °C 2.1 °C 982.6 hPa SSW 14.5 km/h 29 km/h 82 % 0 mm 0 W/m2
16:52 4.8 °C 2 °C 983 hPa SSW 11.3 km/h 17.7 km/h 82 % 0 mm 0 W/m2
16:57 4.8 °C 2.2 °C 983 hPa SSW 14.5 km/h 19.3 km/h 83 % 0 mm 0 W/m2
16:59 4.8 °C 2.2 °C 983 hPa SSW 11.3 km/h 16.1 km/h 83 % 0 mm 0 W/m2
17:04 4.7 °C 2.1 °C 983 hPa SW 14.5 km/h 19.3 km/h 83 % 0 mm 0 W/m2
17:09 4.7 °C 2.2 °C 983 hPa SW 17.7 km/h 29 km/h 84 % 0 mm 0 W/m2
17:14 4.7 °C 2.4 °C 983 hPa WSW 14.5 km/h 20.9 km/h 85 % 0 mm 0 W/m2
17:18 4.6 °C 2.3 °C 983.3 hPa WSW 11.3 km/h 17.7 km/h 85 % 0 mm 0 W/m2
17:22 4.6 °C 2.4 °C 983.3 hPa WSW 14.5 km/h 25.7 km/h 86 % 0 mm 0 W/m2
17:27 4.4 °C 2.4 °C 983.3 hPa West 14.5 km/h 20.9 km/h 87 % 0 mm 0 W/m2
17:32 4.3 °C 2.5 °C 983.6 hPa West 14.5 km/h 20.9 km/h 88 % 0.25 mm 0 W/m2
17:37 4.1 °C 2.3 °C 984 hPa WNW 16.1 km/h 25.7 km/h 88 % 0.51 mm 0 W/m2
17:39 4 °C 2.3 °C 984 hPa WNW 17.7 km/h 38.6 km/h 89 % 0.51 mm 0 W/m2
17:45 3.6 °C 1.9 °C 984 hPa West 22.5 km/h 33.8 km/h 89 % 1.27 mm 0 W/m2
17:48 3.4 °C 1.8 °C 984.3 hPa WNW 14.5 km/h 24.1 km/h 89 % 1.52 mm 0 W/m2
17:50 3.2 °C 1.6 °C 983.6 hPa WNW 12.9 km/h 24.1 km/h 89 % 1.52 mm 0 W/m2
17:55 2.7 °C 1.1 °C 983.6 hPa West 8 km/h 12.9 km/h 89 % 1.78 mm 0 W/m2
18:01 2.4 °C 1.1 °C 983.6 hPa West 8 km/h 12.9 km/h 91 % 1.78 mm 0 W/m2
18:06 2.3 °C 1 °C 983.6 hPa West 8 km/h 12.9 km/h 91 % 1.78 mm 0 W/m2
18:11 2.2 °C 1.1 °C 983.6 hPa West 9.7 km/h 14.5 km/h 92 % 1.78 mm 0 W/m2
18:16 2.2 °C 1.1 °C 983.6 hPa West 11.3 km/h 17.7 km/h 92 % 1.78 mm 0 W/m2
18:17 2.2 °C 1.1 °C 983.6 hPa West 9.7 km/h 17.7 km/h 92 % 1.78 mm 0 W/m2
18:22 2.1 °C 0.9 °C 983.6 hPa WNW 11.3 km/h 16.1 km/h 92 % 1.78 mm 0 W/m2
18:27 2.2 °C 1.2 °C 984 hPa WNW 11.3 km/h 16.1 km/h 93 % 1.78 mm 0 W/m2
18:30 2.2 °C 1.2 °C 984 hPa WNW 8 km/h 12.9 km/h 93 % 1.52 mm 0 W/m2
18:35 2.2 °C 1.2 °C 984 hPa WNW 8 km/h 12.9 km/h 93 % 1.27 mm 0 W/m2
18:40 2.1 °C 1.1 °C 984 hPa WNW 8 km/h 12.9 km/h 93 % 1.02 mm 0 W/m2
18:44 2.1 °C 1.1 °C 984 hPa WNW 4.8 km/h 8 km/h 93 % 0.76 mm 0 W/m2
18:49 2.1 °C 1.1 °C 984 hPa West 6.4 km/h 12.9 km/h 93 % 0.51 mm 0 W/m2
18:54 2.1 °C 1.1 °C 984 hPa West 4.8 km/h 9.7 km/h 93 % 0 mm 0 W/m2
18:59 2.1 °C 1.1 °C 984 hPa WSW 1.6 km/h 6.4 km/h 93 % 0 mm 0 W/m2
19:01 2 °C 1 °C 984 hPa WSW 1.6 km/h 3.2 km/h 93 % 0 mm 0 W/m2
19:06 1.9 °C 0.9 °C 984 hPa WSW 3.2 km/h 6.4 km/h 93 % 0 mm 0 W/m2
19:10 1.9 °C 0.9 °C 984 hPa WSW 1.6 km/h 3.2 km/h 93 % 0 mm 0 W/m2
19:15 1.8 °C 0.8 °C 984.3 hPa WNW 1.6 km/h 6.4 km/h 93 % 0 mm 0 W/m2
19:20 1.7 °C 0.7 °C 984.3 hPa NW 3.2 km/h 11.3 km/h 93 % 0 mm 0 W/m2
19:22 1.7 °C 0.7 °C 984 hPa NW 3.2 km/h 9.7 km/h 93 % 0 mm 0 W/m2
19:25 1.7 °C 0.8 °C 984.3 hPa WNW 6.4 km/h 14.5 km/h 94 % 0 mm 0 W/m2
19:30 1.9 °C 1.1 °C 984 hPa WNW 8 km/h 16.1 km/h 94 % 0 mm 0 W/m2
19:34 2.1 °C 1.2 °C 984.3 hPa WNW 16.1 km/h 22.5 km/h 94 % 0 mm 0 W/m2
19:39 2.3 °C 1.4 °C 984.3 hPa WNW 12.9 km/h 20.9 km/h 94 % 0 mm 0 W/m2
19:44 2.5 °C 1.6 °C 984.3 hPa WNW 16.1 km/h 25.7 km/h 94 % 0 mm 0 W/m2
19:49 2.6 °C 1.7 °C 984.3 hPa WNW 16.1 km/h 20.9 km/h 94 % 0 mm 0 W/m2
19:54 2.7 °C 1.8 °C 984.3 hPa WNW 12.9 km/h 24.1 km/h 94 % 0 mm 0 W/m2
19:59 2.8 °C 1.9 °C 984.3 hPa WNW 14.5 km/h 22.5 km/h 94 % 0 mm 0 W/m2
20:04 2.8 °C 1.8 °C 984.3 hPa WNW 14.5 km/h 24.1 km/h 93 % 0 mm 0 W/m2
20:09 2.9 °C 1.9 °C 984.3 hPa WNW 12.9 km/h 20.9 km/h 93 % 0 mm 0 W/m2
20:14 2.9 °C 1.9 °C 984.3 hPa WNW 12.9 km/h 22.5 km/h 93 % 0.25 mm 0 W/m2
20:19 3 °C 2 °C 984.6 hPa WNW 16.1 km/h 24.1 km/h 93 % 0.25 mm 0 W/m2
20:24 3.1 °C 2.1 °C 984.6 hPa WNW 14.5 km/h 22.5 km/h 93 % 0.25 mm 0 W/m2
20:27 3.1 °C 1.9 °C 984.6 hPa WNW 14.5 km/h 24.1 km/h 92 % 0.25 mm 0 W/m2
20:32 3.2 °C 2 °C 984.6 hPa WNW 12.9 km/h 20.9 km/h 92 % 0.25 mm 0 W/m2
20:37 3.2 °C 1.9 °C 984.6 hPa WNW 17.7 km/h 33.8 km/h 91 % 0.25 mm 0 W/m2
20:42 3.3 °C 1.9 °C 984.6 hPa WNW 20.9 km/h 32.2 km/h 91 % 0.25 mm 0 W/m2
20:47 3.4 °C 2.1 °C 984.6 hPa WNW 17.7 km/h 29 km/h 91 % 0.25 mm 0 W/m2
20:52 3.4 °C 2.1 °C 985 hPa WNW 16.1 km/h 22.5 km/h 91 % 0.25 mm 0 W/m2
20:57 3.3 °C 1.8 °C 984.6 hPa WNW 16.1 km/h 24.1 km/h 90 % 0.25 mm 0 W/m2
21:02 3.2 °C 1.9 °C 984.6 hPa WNW 17.7 km/h 25.7 km/h 91 % 0.25 mm 0 W/m2
21:07 3.1 °C 1.8 °C 985 hPa WNW 14.5 km/h 22.5 km/h 91 % 0.25 mm 0 W/m2
21:12 3 °C 1.7 °C 985 hPa WNW 17.7 km/h 24.1 km/h 91 % 0 mm 0 W/m2
21:17 3 °C 1.7 °C 985 hPa WNW 12.9 km/h 17.7 km/h 91 % 0 mm 0 W/m2
21:22 3 °C 1.7 °C 985 hPa WNW 14.5 km/h 22.5 km/h 91 % 0 mm 0 W/m2
21:27 2.9 °C 1.7 °C 985 hPa WNW 12.9 km/h 22.5 km/h 92 % 0 mm 0 W/m2
21:32 2.9 °C 1.7 °C 985 hPa WNW 12.9 km/h 19.3 km/h 92 % 0 mm 0 W/m2
21:37 2.9 °C 1.7 °C 985 hPa WNW 12.9 km/h 20.9 km/h 92 % 0 mm 0 W/m2
21:42 2.8 °C 1.6 °C 985 hPa WNW 14.5 km/h 22.5 km/h 92 % 0 mm 0 W/m2
21:47 2.8 °C 1.6 °C 985 hPa WNW 16.1 km/h 22.5 km/h 92 % 0 mm 0 W/m2
21:52 2.8 °C 1.6 °C 985 hPa WNW 11.3 km/h 17.7 km/h 92 % 0 mm 0 W/m2
21:57 2.8 °C 1.6 °C 985 hPa WNW 16.1 km/h 25.7 km/h 92 % 0 mm 0 W/m2
22:02 2.9 °C 1.7 °C 985.3 hPa WNW 11.3 km/h 16.1 km/h 92 % 0 mm 0 W/m2
22:07 2.9 °C 1.7 °C 985.3 hPa WNW 14.5 km/h 20.9 km/h 92 % 0.25 mm 0 W/m2
22:12 3 °C 2 °C 985.3 hPa WNW 14.5 km/h 24.1 km/h 93 % 0.51 mm 0 W/m2
22:17 2.9 °C 1.9 °C 985.3 hPa WNW 16.1 km/h 30.6 km/h 93 % 0.76 mm 0 W/m2
22:23 2.8 °C 1.6 °C 985.3 hPa WNW 12.9 km/h 22.5 km/h 92 % 1.52 mm 0 W/m2
22:28 2.7 °C 1.6 °C 985.3 hPa WNW 12.9 km/h 19.3 km/h 92 % 1.78 mm 0 W/m2
22:33 2.5 °C 1.5 °C 985.7 hPa WNW 11.3 km/h 17.7 km/h 93 % 2.03 mm 0 W/m2
22:38 2.3 °C 1.3 °C 985.7 hPa WNW 12.9 km/h 19.3 km/h 93 % 2.29 mm 0 W/m2
22:43 2.1 °C 1.1 °C 985.7 hPa WNW 8 km/h 14.5 km/h 93 % 2.54 mm 0 W/m2
22:48 1.9 °C 0.9 °C 985.7 hPa WNW 8 km/h 12.9 km/h 93 % 2.79 mm 0 W/m2
22:53 1.8 °C 0.8 °C 985.7 hPa West 6.4 km/h 11.3 km/h 93 % 2.79 mm 0 W/m2
22:58 1.7 °C 0.7 °C 985.7 hPa West 3.2 km/h 8 km/h 93 % 3.05 mm 0 W/m2
23:03 1.5 °C 0.5 °C 985.7 hPa West 4.8 km/h 8 km/h 93 % 3.05 mm 0 W/m2
23:08 1.3 °C 0.3 °C 985.7 hPa West 1.6 km/h 3.2 km/h 93 % 2.79 mm 0 W/m2
23:13 1.2 °C 0.2 °C 985.7 hPa Calm   3.2 km/h 93 % 2.79 mm 0 W/m2
23:18 1.1 °C 0.2 °C 985.7 hPa West 3.2 km/h 6.4 km/h 94 % 2.29 mm 0 W/m2
23:23 1.1 °C 0.2 °C 985.7 hPa West 3.2 km/h 6.4 km/h 94 % 1.78 mm 0 W/m2
23:28 1 °C 0.2 °C 985.7 hPa WNW 8 km/h 12.9 km/h 94 % 1.52 mm 0 W/m2
23:33 1.1 °C 0.2 °C 985.7 hPa WNW 11.3 km/h 17.7 km/h 94 % 1.27 mm 0 W/m2
23:38 1.2 °C 0.5 °C 986 hPa WNW 9.7 km/h 16.1 km/h 95 % 0.76 mm 0 W/m2
23:43 1.3 °C 0.6 °C 986 hPa WNW 9.7 km/h 16.1 km/h 95 % 0.51 mm 0 W/m2
23:48 1.4 °C 0.7 °C 986 hPa WNW 14.5 km/h 20.9 km/h 95 % 0.51 mm 0 W/m2
23:53 1.6 °C 0.9 °C 986 hPa WNW 12.9 km/h 20.9 km/h 95 % 0.51 mm 0 W/m2
23:58 1.7 °C 1 °C 986 hPa WNW 14.5 km/h 20.9 km/h 95 % 0.51 mm 0 W/m2
Delerius-Weather
Compliments of Weather Underground - 2.5 mb

Data updates at regular intervals.